createdAt,value
2022-10-18T00:02:26.834Z,3.33
2022-10-18T00:05:09.788Z,3.55
2022-10-18T00:07:52.592Z,3.47
2022-10-18T00:10:35.408Z,3.58
2022-10-18T00:13:18.152Z,3.17
2022-10-18T00:16:01.889Z,3.58
2022-10-18T00:18:48.074Z,3.72
2022-10-18T00:21:30.888Z,3.75
2022-10-18T00:24:13.794Z,3.35
2022-10-18T00:26:56.523Z,3.60
2022-10-18T00:29:39.291Z,3.53
2022-10-18T00:32:22.308Z,3.80
2022-10-18T00:35:07.619Z,3.55
2022-10-18T00:37:50.453Z,3.47
2022-10-18T00:40:33.186Z,4.22
2022-10-18T00:43:17.341Z,3.45
2022-10-18T00:46:00.110Z,3.97
2022-10-18T00:48:42.893Z,3.95
2022-10-18T00:51:28.703Z,4.00
2022-10-18T00:54:11.805Z,4.10
2022-10-18T00:56:54.563Z,4.47
2022-10-18T00:59:37.440Z,4.20
2022-10-18T01:02:20.418Z,4.50
2022-10-18T01:05:03.227Z,3.92
2022-10-18T01:08:06.925Z,4.75
2022-10-18T01:10:55.654Z,4.20
2022-10-18T01:13:42.753Z,4.47
2022-10-18T01:16:27.908Z,3.90
2022-10-18T01:19:18.066Z,3.88
2022-10-18T01:22:03.975Z,4.32
2022-10-18T01:27:51.544Z,4.68
2022-10-18T01:30:47.645Z,4.50
2022-10-18T01:33:34.083Z,4.18
2022-10-18T01:36:20.529Z,4.72
2022-10-18T01:39:06.494Z,4.35
2022-10-18T01:41:50.437Z,4.93
2022-10-18T01:44:34.072Z,4.65
2022-10-18T01:47:19.176Z,5.18
2022-10-18T01:50:02.422Z,4.88
2022-10-18T01:52:49.476Z,4.70
2022-10-18T01:55:35.037Z,4.72
2022-10-18T01:58:20.948Z,5.07
2022-10-18T02:01:07.814Z,5.35
2022-10-18T02:03:53.850Z,4.55
2022-10-18T02:06:37.892Z,4.80
2022-10-18T02:09:22.581Z,4.60
2022-10-18T02:12:05.998Z,5.05
2022-10-18T02:14:49.019Z,5.60
2022-10-18T02:17:33.338Z,4.95
2022-10-18T02:20:19.160Z,5.20
2022-10-18T02:23:02.902Z,5.15
2022-10-18T02:25:45.726Z,5.38
2022-10-18T02:28:28.558Z,5.43
2022-10-18T02:31:14.507Z,5.50
2022-10-18T02:33:58.387Z,5.63
2022-10-18T02:36:44.540Z,6.07
2022-10-18T02:39:29.927Z,5.43
2022-10-18T02:42:12.971Z,5.57
2022-10-18T02:44:55.705Z,6.35
2022-10-18T02:47:38.409Z,6.35
2022-10-18T02:50:21.155Z,6.20
2022-10-18T02:53:05.439Z,6.00
2022-10-18T02:55:48.212Z,5.35
2022-10-18T02:58:31.021Z,6.32
2022-10-18T03:01:13.748Z,7.10
2022-10-18T03:03:56.707Z,6.68
2022-10-18T03:06:39.624Z,6.82
2022-10-18T03:09:23.779Z,6.63
2022-10-18T03:12:06.680Z,7.10
2022-10-18T03:14:49.498Z,6.35
2022-10-18T03:17:32.476Z,6.20
2022-10-18T03:20:15.358Z,6.45
2022-10-18T03:22:58.093Z,7.00
2022-10-18T03:25:45.612Z,7.30
2022-10-18T03:28:29.510Z,6.05
2022-10-18T03:31:12.351Z,6.43
2022-10-18T03:33:55.097Z,5.65
2022-10-18T03:36:38.793Z,5.75
2022-10-18T03:39:21.498Z,5.63
2022-10-18T03:42:05.652Z,6.00
2022-10-18T03:44:48.421Z,5.95
2022-10-18T03:47:31.181Z,6.57
2022-10-18T03:50:14.043Z,6.55
2022-10-18T03:52:56.815Z,6.47
2022-10-18T03:55:39.742Z,6.65
2022-10-18T03:58:24.378Z,7.07
2022-10-18T04:01:07.331Z,7.75
2022-10-18T04:03:50.084Z,7.13
2022-10-18T04:06:32.945Z,7.40
2022-10-18T04:09:15.876Z,7.05
2022-10-18T04:11:58.679Z,7.72
2022-10-18T04:14:42.801Z,7.43
2022-10-18T04:17:25.512Z,8.02
2022-10-18T04:20:08.752Z,7.47
2022-10-18T04:22:51.985Z,7.50
2022-10-18T04:25:34.736Z,7.68
2022-10-18T04:28:17.489Z,7.50
2022-10-18T04:31:01.615Z,7.82
2022-10-18T04:33:44.423Z,6.90
2022-10-18T04:36:27.133Z,7.72
2022-10-18T04:39:10.071Z,8.07
2022-10-18T04:41:52.741Z,7.72
2022-10-18T04:44:35.515Z,8.10
2022-10-18T04:47:19.597Z,8.50
2022-10-18T04:50:02.380Z,8.43
2022-10-18T04:52:45.279Z,7.68
2022-10-18T04:55:28.137Z,8.50
2022-10-18T04:58:10.884Z,8.00
2022-10-18T05:00:53.677Z,7.85
2022-10-18T05:03:38.047Z,7.63
2022-10-18T05:06:20.935Z,8.30
2022-10-18T05:09:03.759Z,8.15
2022-10-18T05:11:46.486Z,8.00
2022-10-18T05:14:31.949Z,7.88
2022-10-18T05:17:14.765Z,8.23
2022-10-18T05:19:59.011Z,8.25
2022-10-18T05:22:41.780Z,8.60
2022-10-18T05:25:24.755Z,8.82
2022-10-18T05:28:11.134Z,8.63
2022-10-18T05:31:11.546Z,8.32
2022-10-18T05:33:54.471Z,8.55
2022-10-18T05:36:38.752Z,8.40
2022-10-18T05:39:21.574Z,8.48
2022-10-18T05:42:04.408Z,8.00
2022-10-18T05:44:47.401Z,7.78
2022-10-18T05:47:30.303Z,8.65
2022-10-18T05:50:13.161Z,8.05
2022-10-18T05:53:06.917Z,8.07
2022-10-18T05:55:55.357Z,8.10
2022-10-18T06:01:43.075Z,6.32
2022-10-18T06:04:25.705Z,6.80
2022-10-18T06:07:09.412Z,6.88
2022-10-18T06:09:53.424Z,6.47
2022-10-18T06:12:36.017Z,7.13
2022-10-18T06:15:18.909Z,6.43
2022-10-18T06:18:01.537Z,6.40
2022-10-18T06:20:44.464Z,6.35
2022-10-18T06:23:27.158Z,7.10
2022-10-18T06:26:12.400Z,6.57
2022-10-18T06:28:55.378Z,6.40
2022-10-18T06:31:38.207Z,5.82
2022-10-18T06:34:21.153Z,6.15
2022-10-18T06:37:03.773Z,6.13
2022-10-18T06:39:46.572Z,5.55
2022-10-18T06:42:31.980Z,6.45
2022-10-18T06:45:15.981Z,6.25
2022-10-18T06:47:59.110Z,5.97
2022-10-18T06:50:41.845Z,6.30
2022-10-18T06:53:24.845Z,5.78
2022-10-18T06:56:08.381Z,5.50
2022-10-18T06:58:52.384Z,5.43
2022-10-18T07:01:35.106Z,5.00
2022-10-18T07:04:18.057Z,6.38
2022-10-18T07:07:00.886Z,6.95
2022-10-18T07:09:46.069Z,6.35
2022-10-18T07:12:28.790Z,6.68
2022-10-18T07:15:13.111Z,5.97
2022-10-18T07:17:55.829Z,5.75
2022-10-18T07:20:38.562Z,6.30
2022-10-18T07:23:23.922Z,5.80
2022-10-18T07:26:12.607Z,6.68
2022-10-18T07:28:57.969Z,6.18
2022-10-18T07:31:42.073Z,6.18
2022-10-18T07:34:24.848Z,6.20
2022-10-18T07:37:07.565Z,6.05
2022-10-18T07:39:50.259Z,6.70
2022-10-18T07:42:33.137Z,5.45
2022-10-18T07:45:15.815Z,5.43
2022-10-18T07:47:59.840Z,5.35
2022-10-18T07:50:42.518Z,5.53
2022-10-18T07:53:25.386Z,5.50
2022-10-18T07:56:10.545Z,6.05
2022-10-18T07:58:53.875Z,5.03
2022-10-18T08:01:36.872Z,5.63
2022-10-18T08:04:21.250Z,5.40
2022-10-18T08:07:04.031Z,5.55
2022-10-18T08:09:46.994Z,5.55
2022-10-18T08:12:29.750Z,5.40
2022-10-18T08:15:12.908Z,5.97
2022-10-18T08:17:55.570Z,5.22
2022-10-18T08:20:43.256Z,5.45
2022-10-18T08:23:26.046Z,5.25
2022-10-18T08:26:09.720Z,5.78
2022-10-18T08:28:58.262Z,5.63
2022-10-18T08:31:46.339Z,5.60
2022-10-18T08:34:29.112Z,5.53
2022-10-18T08:37:13.121Z,5.75
2022-10-18T08:39:55.813Z,5.05
2022-10-18T08:42:43.129Z,5.60
2022-10-18T08:45:41.103Z,5.63
2022-10-18T08:48:31.957Z,5.57
2022-10-18T08:51:19.417Z,6.03
2022-10-18T08:54:07.451Z,5.82
2022-10-18T08:56:57.682Z,5.38
2022-10-18T08:59:41.200Z,4.90
2022-10-18T09:02:32.988Z,5.65
2022-10-18T09:05:20.579Z,4.75
2022-10-18T09:08:16.879Z,5.65
2022-10-18T09:11:08.107Z,5.28
2022-10-18T09:14:00.411Z,5.07
2022-10-18T09:16:46.965Z,5.43
2022-10-18T09:19:47.432Z,5.53
2022-10-18T09:22:34.218Z,6.10
2022-10-18T09:25:18.988Z,4.72
2022-10-18T09:28:11.309Z,5.03
2022-10-18T09:30:59.585Z,5.68
2022-10-18T09:33:46.814Z,5.13
2022-10-18T09:36:35.528Z,4.35
2022-10-18T09:39:20.915Z,4.85
2022-10-18T09:42:05.284Z,4.53
2022-10-18T09:44:52.413Z,4.72
2022-10-18T09:47:38.159Z,4.63
2022-10-18T09:50:24.973Z,4.10
2022-10-18T09:53:12.724Z,3.70
2022-10-18T09:55:59.194Z,3.75
2022-10-18T09:58:44.166Z,3.92
2022-10-18T10:01:30.063Z,4.07
2022-10-18T10:04:12.722Z,3.88
2022-10-18T10:06:56.213Z,3.45
2022-10-18T10:09:41.610Z,3.83
2022-10-18T10:12:28.516Z,3.88
2022-10-18T10:15:17.504Z,3.90
2022-10-18T10:18:02.304Z,3.38
2022-10-18T10:20:45.882Z,3.65
2022-10-18T10:23:30.379Z,4.28
2022-10-18T10:26:22.700Z,3.85
2022-10-18T10:29:13.258Z,3.28
2022-10-18T10:32:03.196Z,3.50
2022-10-18T10:34:47.927Z,4.25
2022-10-18T10:37:32.259Z,4.15
2022-10-18T10:40:18.845Z,4.20
2022-10-18T10:43:18.360Z,4.07
2022-10-18T10:46:08.402Z,4.22
2022-10-18T10:48:59.524Z,3.92
2022-10-18T10:52:08.349Z,4.28
2022-10-18T10:54:53.840Z,3.95
2022-10-18T10:57:36.802Z,3.90
2022-10-18T11:00:39.212Z,3.58
2022-10-18T11:03:29.117Z,4.55
2022-10-18T11:06:26.777Z,3.92
2022-10-18T11:09:15.128Z,4.18
2022-10-18T11:12:00.760Z,3.92
2022-10-18T11:14:45.710Z,3.92
2022-10-18T11:17:31.000Z,4.28
2022-10-18T11:20:17.797Z,4.00
2022-10-18T11:23:02.277Z,4.38
2022-10-18T11:25:59.516Z,4.15
2022-10-18T11:28:53.365Z,4.30
2022-10-18T11:31:39.320Z,3.92
2022-10-18T11:34:27.176Z,3.58
2022-10-18T11:37:34.483Z,3.33
2022-10-18T11:40:27.823Z,2.88
2022-10-18T11:43:15.692Z,3.15
2022-10-18T11:46:00.389Z,2.40
2022-10-18T11:48:50.666Z,3.00
2022-10-18T11:51:56.089Z,2.50
2022-10-18T11:54:53.562Z,2.38
2022-10-18T11:57:41.491Z,2.67
2022-10-18T12:00:29.790Z,2.00
2022-10-18T12:03:27.360Z,2.00
2022-10-18T12:06:13.080Z,1.85
2022-10-18T12:08:57.416Z,2.00
2022-10-18T12:11:45.405Z,1.67
2022-10-18T12:14:31.445Z,1.70
2022-10-18T12:17:41.809Z,1.33
2022-10-18T12:20:24.643Z,1.35
2022-10-18T12:23:10.598Z,1.45
2022-10-18T12:25:55.059Z,1.30
2022-10-18T12:28:41.812Z,1.30
2022-10-18T12:31:27.495Z,1.23
2022-10-18T12:34:19.722Z,1.10
2022-10-18T12:37:15.643Z,0.95
2022-10-18T12:40:18.577Z,0.95
2022-10-18T12:43:08.645Z,1.20
2022-10-18T12:45:53.362Z,1.20
2022-10-18T12:48:38.749Z,1.00
2022-10-18T12:51:23.592Z,1.08
2022-10-18T12:54:13.069Z,1.10
2022-10-18T12:56:55.756Z,0.98
2022-10-18T12:59:42.005Z,0.82
2022-10-18T13:02:28.858Z,1.10
2022-10-18T13:05:41.972Z,1.00
2022-10-18T13:08:42.117Z,1.08
2022-10-18T13:11:36.020Z,0.70
2022-10-18T13:14:48.210Z,1.10
2022-10-18T13:17:47.012Z,1.13
2022-10-18T13:20:32.828Z,0.82
2022-10-18T13:23:28.966Z,0.90
2022-10-18T13:26:18.745Z,1.00
2022-10-18T13:29:05.898Z,0.90
2022-10-18T13:31:50.609Z,1.05
2022-10-18T13:34:35.198Z,0.85
2022-10-18T13:37:23.966Z,0.80
2022-10-18T13:40:16.577Z,0.70
2022-10-18T13:43:20.526Z,1.45
2022-10-18T13:46:03.648Z,0.70
2022-10-18T13:48:47.720Z,0.60
2022-10-18T13:51:57.320Z,1.10
2022-10-18T13:54:46.619Z,1.10
2022-10-18T13:57:39.976Z,0.80
2022-10-18T14:00:34.723Z,0.98
2022-10-18T14:03:57.607Z,0.77
2022-10-18T14:06:42.423Z,0.80
2022-10-18T14:12:32.141Z,0.90
2022-10-18T14:15:17.187Z,0.95
2022-10-18T14:18:03.161Z,0.70
2022-10-18T14:21:01.430Z,1.38
2022-10-18T14:23:51.669Z,0.80
2022-10-18T14:26:34.613Z,0.93
2022-10-18T14:29:18.338Z,0.63
2022-10-18T14:32:00.998Z,0.63
2022-10-18T14:34:46.047Z,0.70
2022-10-18T14:37:29.999Z,0.90
2022-10-18T14:40:26.813Z,0.88
2022-10-18T14:43:12.788Z,0.63
2022-10-18T14:45:55.574Z,0.63
2022-10-18T14:48:38.256Z,0.98
2022-10-18T14:51:22.493Z,0.88
2022-10-18T14:54:05.291Z,0.90
2022-10-18T14:56:48.478Z,0.85
2022-10-18T14:59:33.363Z,1.00
2022-10-18T15:02:17.318Z,0.70
2022-10-18T15:05:00.822Z,0.88
2022-10-18T15:07:45.347Z,0.77
2022-10-18T15:10:29.802Z,0.90
2022-10-18T15:13:13.578Z,0.80
2022-10-18T15:15:56.972Z,1.10
2022-10-18T15:18:39.625Z,0.80
2022-10-18T15:21:23.275Z,0.90
2022-10-18T15:24:28.872Z,0.70
2022-10-18T15:27:14.564Z,0.88
2022-10-18T15:29:57.174Z,0.70
2022-10-18T15:32:47.617Z,0.68
2022-10-18T15:35:31.322Z,0.60
2022-10-18T15:38:14.938Z,0.70
2022-10-18T15:40:59.060Z,0.65
2022-10-18T15:43:41.953Z,0.80
2022-10-18T15:46:30.843Z,0.60
2022-10-18T15:49:32.195Z,0.80
2022-10-18T15:52:37.441Z,0.90
2022-10-18T15:55:39.670Z,1.00
2022-10-18T15:58:25.015Z,1.10
2022-10-18T16:01:09.188Z,0.95
2022-10-18T16:03:52.575Z,0.70
2022-10-18T16:06:38.478Z,0.80
2022-10-18T16:09:21.999Z,1.10
2022-10-18T16:12:04.844Z,0.63
2022-10-18T16:14:48.946Z,0.70
2022-10-18T16:17:32.541Z,0.93
2022-10-18T16:20:19.786Z,0.60
2022-10-18T16:23:02.514Z,0.80
2022-10-18T16:25:45.477Z,0.73
2022-10-18T16:28:28.770Z,0.85
2022-10-18T16:34:03.310Z,0.90
2022-10-18T16:36:46.209Z,0.50
2022-10-18T16:39:32.040Z,0.98
2022-10-18T16:42:14.686Z,0.68
2022-10-18T16:44:58.700Z,0.68
2022-10-18T16:47:42.694Z,0.85
2022-10-18T16:50:25.440Z,0.70
2022-10-18T16:53:08.137Z,0.82
2022-10-18T16:55:52.916Z,0.70
2022-10-18T16:58:35.548Z,0.73
2022-10-18T17:01:19.830Z,0.65
2022-10-18T17:04:03.950Z,0.98
2022-10-18T17:06:47.568Z,0.85
2022-10-18T17:09:30.201Z,0.60
2022-10-18T17:12:12.895Z,0.60
2022-10-18T17:14:55.490Z,0.70
2022-10-18T17:17:38.808Z,0.85
2022-10-18T17:20:24.312Z,0.75
2022-10-18T17:23:08.661Z,0.95
2022-10-18T17:26:04.853Z,1.20
2022-10-18T17:28:51.158Z,0.70
2022-10-18T17:31:35.559Z,0.80
2022-10-18T17:34:21.204Z,0.70
2022-10-18T17:37:05.967Z,0.60
2022-10-18T17:39:48.685Z,0.80
2022-10-18T17:42:31.430Z,0.85
2022-10-18T17:45:14.166Z,0.82
2022-10-18T17:47:57.112Z,0.65
2022-10-18T17:50:40.885Z,0.70
2022-10-18T17:53:28.714Z,0.60
2022-10-18T17:56:11.651Z,0.98
2022-10-18T17:58:54.461Z,0.60
2022-10-18T18:01:37.247Z,0.80
2022-10-18T18:04:19.861Z,0.95
2022-10-18T18:07:04.414Z,0.60
2022-10-18T18:09:48.765Z,0.60
2022-10-18T18:12:31.857Z,0.60
2022-10-18T18:15:14.817Z,0.70
2022-10-18T18:17:58.297Z,0.50
2022-10-18T18:20:41.205Z,0.80
2022-10-18T18:23:23.873Z,0.70
2022-10-18T18:26:08.142Z,0.52
2022-10-18T18:28:51.173Z,0.60
2022-10-18T18:31:38.690Z,0.95
2022-10-18T18:34:24.252Z,0.70
2022-10-18T18:37:08.398Z,0.50
2022-10-18T18:39:51.320Z,0.50
2022-10-18T18:42:35.562Z,0.52
2022-10-18T18:45:18.536Z,0.70
2022-10-18T18:48:01.265Z,0.60
2022-10-18T18:50:49.856Z,0.70
2022-10-18T18:53:32.859Z,0.45
2022-10-18T18:56:16.332Z,0.57
2022-10-18T18:59:00.663Z,0.60
2022-10-18T19:01:43.995Z,0.60
2022-10-18T19:04:29.132Z,0.70
2022-10-18T19:07:12.141Z,0.43
2022-10-18T19:09:55.006Z,0.60
2022-10-18T19:12:37.864Z,0.70
2022-10-18T19:15:22.361Z,0.85
2022-10-18T19:18:05.861Z,0.52
2022-10-18T19:20:48.793Z,0.73
2022-10-18T19:23:31.575Z,0.70
2022-10-18T19:26:15.393Z,0.60
2022-10-18T19:29:01.650Z,0.70
2022-10-18T19:31:46.362Z,0.68
2022-10-18T19:34:29.970Z,0.73
2022-10-18T19:37:13.115Z,0.70
2022-10-18T19:39:55.830Z,0.80
2022-10-18T19:42:38.683Z,0.90
2022-10-18T19:45:21.647Z,0.68
2022-10-18T19:48:06.299Z,0.82
2022-10-18T19:50:50.396Z,0.68
2022-10-18T19:53:33.576Z,0.80
2022-10-18T19:56:18.990Z,0.88
2022-10-18T19:59:02.012Z,1.23
2022-10-18T20:01:45.283Z,0.82
2022-10-18T20:04:34.113Z,0.80
2022-10-18T20:07:16.971Z,0.70
2022-10-18T20:10:00.070Z,0.77
2022-10-18T20:12:42.819Z,0.98
2022-10-18T20:15:25.687Z,1.00
2022-10-18T20:18:08.348Z,0.70
2022-10-18T20:20:52.368Z,0.77
2022-10-18T20:23:36.061Z,0.60
2022-10-18T20:26:20.845Z,0.63
2022-10-18T20:29:04.021Z,0.80
2022-10-18T20:31:47.650Z,0.60
2022-10-18T20:34:30.430Z,0.65
2022-10-18T20:37:14.493Z,0.63
2022-10-18T20:39:57.187Z,0.88
2022-10-18T20:42:39.904Z,0.60
2022-10-18T20:45:22.565Z,0.60
2022-10-18T20:48:05.461Z,0.73
2022-10-18T20:50:48.152Z,0.80
2022-10-18T20:53:32.140Z,0.65
2022-10-18T20:56:15.579Z,0.73
2022-10-18T20:58:58.385Z,0.90
2022-10-18T21:01:41.345Z,0.80
2022-10-18T21:04:24.142Z,0.88
2022-10-18T21:07:09.578Z,0.93
2022-10-18T21:09:53.521Z,0.85
2022-10-18T21:12:36.401Z,0.65
2022-10-18T21:15:19.312Z,1.00
2022-10-18T21:18:01.924Z,0.70
2022-10-18T21:20:44.635Z,0.77
2022-10-18T21:23:27.298Z,0.60
2022-10-18T21:26:14.477Z,1.00
2022-10-18T21:28:58.744Z,0.70
2022-10-18T21:31:42.401Z,0.60
2022-10-18T21:34:25.050Z,0.80
2022-10-18T21:37:07.732Z,0.60
2022-10-18T21:39:50.379Z,1.00
2022-10-18T21:42:34.615Z,0.70
2022-10-18T21:45:17.456Z,0.63
2022-10-18T21:48:00.193Z,0.98
2022-10-18T21:50:42.788Z,0.88
2022-10-18T21:53:25.462Z,0.95
2022-10-18T21:56:08.874Z,0.55
2022-10-18T21:58:52.839Z,0.70
2022-10-18T22:01:36.327Z,0.52
2022-10-18T22:04:19.980Z,0.70
2022-10-18T22:07:04.011Z,0.60
2022-10-18T22:09:46.715Z,0.40
2022-10-18T22:12:29.374Z,0.80
2022-10-18T22:15:13.371Z,0.47
2022-10-18T22:17:56.037Z,0.60
2022-10-18T22:20:38.877Z,0.50
2022-10-18T22:23:21.926Z,0.60
2022-10-18T22:26:04.824Z,0.40
2022-10-18T22:28:48.324Z,0.30
2022-10-18T22:31:34.080Z,0.68
2022-10-18T22:34:17.832Z,0.40
2022-10-18T22:37:00.620Z,0.40
2022-10-18T22:39:43.179Z,0.32
2022-10-18T22:42:25.923Z,0.57
2022-10-18T22:45:09.006Z,0.40
2022-10-18T22:47:52.958Z,0.43
2022-10-18T22:50:35.803Z,0.85
2022-10-18T22:53:18.471Z,0.60
2022-10-18T22:56:01.151Z,0.43
2022-10-18T22:58:44.007Z,0.40
2022-10-18T23:01:26.604Z,0.60
2022-10-18T23:04:10.958Z,0.30
2022-10-18T23:06:54.951Z,0.28
2022-10-18T23:09:37.876Z,0.50
2022-10-18T23:12:20.633Z,0.45
2022-10-18T23:15:03.388Z,0.40
2022-10-18T23:17:46.122Z,0.40
2022-10-18T23:20:30.083Z,0.47
2022-10-18T23:23:13.164Z,0.40
2022-10-18T23:25:55.819Z,0.50
2022-10-18T23:28:39.736Z,0.50
2022-10-18T23:31:23.063Z,0.57
2022-10-18T23:34:06.168Z,0.47
2022-10-18T23:36:50.146Z,0.40
2022-10-18T23:39:32.910Z,0.50
2022-10-18T23:42:15.515Z,0.40
2022-10-18T23:44:58.139Z,0.50
2022-10-18T23:47:40.798Z,0.57
2022-10-18T23:50:23.381Z,0.50
2022-10-18T23:53:07.534Z,0.50
2022-10-18T23:55:51.034Z,0.43
2022-10-18T23:58:34.267Z,0.43
